Time;durP1;ratioP1;P1;durP2;ratioP2;P2;SDS_P1;SDS_P2;PMS_P1;PMS_P2;Temp;Humidity;BMP_temperature;BMP_pressure;BME280_temperature;BME280_humidity;BME280_pressure;Samples;Min_cycle;Max_cycle;Signal;HPM_P1;HPM_P2
2023/01/14 00:00:04;;;;;;;8.13;1.20;;;;;;;1.46;100.00;93342.72;2570896;22;20257;-83
2023/01/14 00:01:15;;;;;;;10.32;1.38;;;;;;;1.49;100.00;93331.50;2584004;22;20068;-83
2023/01/14 00:02:16;;;;;;;6.03;0.93;;;;;;;1.54;100.00;93340.97;2585891;22;20333;-82
2023/01/14 00:03:17;;;;;;;9.70;1.85;;;;;;;1.56;100.00;93336.09;2570462;23;20001;-84
2023/01/14 00:04:18;;;;;;;8.10;1.02;;;;;;;1.80;100.00;93342.88;2558173;23;20005;-82
2023/01/14 00:05:19;;;;;;;7.25;1.30;;;;;;;1.72;100.00;93342.00;2583324;22;20007;-85
2023/01/14 00:06:23;;;;;;;7.07;1.00;;;;;;;1.69;100.00;93341.94;2595576;22;20014;-83
2023/01/14 00:07:24;;;;;;;5.60;1.10;;;;;;;1.68;100.00;93343.81;2571297;23;20072;-81
2023/01/14 00:08:29;;;;;;;3.47;1.10;;;;;;;1.68;100.00;93348.34;2558159;23;20051;-82
2023/01/14 00:09:30;;;;;;;3.70;1.10;;;;;;;1.69;100.00;93341.94;2571430;22;20004;-82
2023/01/14 00:10:31;;;;;;;6.28;1.10;;;;;;;1.68;100.00;93345.72;2569786;23;20027;-82
2023/01/14 00:11:51;;;;;;;5.53;1.23;;;;;;;1.71;100.00;93348.41;2582958;22;20023;-86
2023/01/14 00:13:02;;;;;;;4.88;1.17;;;;;;;1.70;100.00;93343.47;2582947;23;20001;-81
2023/01/14 00:14:03;;;;;;;4.32;0.98;;;;;;;1.92;100.00;93344.53;2574466;22;20015;-81
2023/01/14 00:15:04;;;;;;;6.55;0.95;;;;;;;1.85;100.00;93353.13;2582054;22;20004;-85
2023/01/14 00:16:13;;;;;;;7.35;1.35;;;;;;;1.80;100.00;93356.06;2582430;22;20004;-80
2023/01/14 00:17:24;;;;;;;9.60;1.55;;;;;;;1.72;100.00;93351.78;2572160;23;20066;-84
2023/01/14 00:18:25;;;;;;;5.18;1.13;;;;;;;1.83;100.00;93357.22;2561977;23;20009;-82
2023/01/14 00:19:26;;;;;;;4.70;0.88;;;;;;;1.92;100.00;93363.00;2570942;22;20008;-82
2023/01/14 00:20:30;;;;;;;5.28;1.10;;;;;;;1.94;100.00;93366.81;2571408;23;20008;-85
2023/01/14 00:21:34;;;;;;;5.28;1.15;;;;;;;1.84;100.00;93359.47;2560373;23;20001;-82
2023/01/14 00:22:35;;;;;;;6.03;0.93;;;;;;;1.90;100.00;93366.00;2571745;23;20068;-80
2023/01/14 00:23:36;;;;;;;4.03;1.10;;;;;;;2.06;100.00;93355.28;2570317;23;20023;-86
2023/01/14 00:24:37;;;;;;;4.38;0.93;;;;;;;2.13;100.00;93363.31;2570707;23;20028;-80
2023/01/14 00:25:38;;;;;;;5.88;1.00;;;;;;;1.99;100.00;93358.59;2582124;23;20012;-82
2023/01/14 00:26:42;;;;;;;4.25;0.90;;;;;;;2.08;100.00;93360.22;2569385;23;20008;-81
2023/01/14 00:27:44;;;;;;;2.72;0.75;;;;;;;1.95;100.00;93363.03;2570439;23;20406;-84
2023/01/14 00:28:49;;;;;;;3.10;0.80;;;;;;;1.78;100.00;93360.91;2570853;23;20321;-83
2023/01/14 00:29:50;;;;;;;4.78;0.95;;;;;;;1.87;100.00;93361.41;2588283;22;20000;-80
2023/01/14 00:30:51;;;;;;;2.45;0.60;;;;;;;2.11;100.00;93355.00;2598784;22;20000;-80
2023/01/14 00:31:57;;;;;;;2.42;0.57;;;;;;;1.97;100.00;93354.78;2596888;22;20039;-81
2023/01/14 00:32:58;;;;;;;2.50;0.63;;;;;;;1.90;100.00;93358.09;2571466;23;20007;-79
2023/01/14 00:34:00;;;;;;;0.88;0.50;;;;;;;1.80;100.00;93360.53;2558013;23;20016;-81
2023/01/14 00:35:01;;;;;;;2.33;0.70;;;;;;;1.65;100.00;93362.97;2558725;23;20005;-85
2023/01/14 00:36:04;;;;;;;4.18;0.73;;;;;;;1.81;100.00;93360.22;2558074;23;20652;-82
2023/01/14 00:37:05;;;;;;;1.35;0.50;;;;;;;1.83;100.00;93360.59;2582914;22;20381;-83
2023/01/14 00:38:07;;;;;;;4.28;0.50;;;;;;;1.60;100.00;93367.78;2594546;22;20008;-81
2023/01/14 00:39:09;;;;;;;1.02;0.70;;;;;;;1.58;100.00;93364.72;2569835;23;20015;-82
2023/01/14 00:40:11;;;;;;;3.50;0.65;;;;;;;1.45;100.00;93357.03;2570126;22;20008;-83
2023/01/14 00:41:24;;;;;;;4.32;0.73;;;;;;;1.45;100.00;93354.38;2582551;23;20015;-86
2023/01/14 00:42:25;;;;;;;3.03;0.70;;;;;;;1.54;100.00;93358.63;2575496;22;20011;-80
2023/01/14 00:43:26;;;;;;;5.70;0.75;;;;;;;1.60;100.00;93355.38;2570362;23;20338;-87
2023/01/14 00:44:29;;;;;;;4.30;0.70;;;;;;;1.43;100.00;93351.31;2557797;23;20011;-81
2023/01/14 00:45:32;;;;;;;1.20;0.50;;;;;;;1.35;100.00;93349.69;2571227;22;20027;-81
2023/01/14 00:46:35;;;;;;;4.05;0.70;;;;;;;1.34;100.00;93340.28;2570229;23;20036;-79
2023/01/14 00:47:38;;;;;;;3.40;0.50;;;;;;;1.61;100.00;93337.69;2558011;23;20033;-81
2023/01/14 00:48:39;;;;;;;1.58;0.43;;;;;;;1.40;100.00;93344.13;2569741;23;20020;-84
2023/01/14 00:49:40;;;;;;;2.33;0.60;;;;;;;1.30;100.00;93343.97;2571601;22;20405;-80
2023/01/14 00:50:41;;;;;;;1.77;0.47;;;;;;;1.25;100.00;93340.50;2571617;23;20386;-80
2023/01/14 00:51:42;;;;;;;2.80;0.73;;;;;;;1.23;100.00;93341.97;2571132;22;20005;-82
2023/01/14 00:52:44;;;;;;;2.00;0.57;;;;;;;1.23;100.00;93360.41;2571000;23;20047;-80
2023/01/14 00:53:52;;;;;;;3.25;0.70;;;;;;;1.13;100.00;93356.47;2570931;22;20036;-81
2023/01/14 00:54:53;;;;;;;2.72;0.50;;;;;;;1.23;100.00;93352.50;2584533;22;20351;-87
2023/01/14 00:55:56;;;;;;;2.15;0.40;;;;;;;1.45;100.00;93362.28;2583691;22;20004;-82
2023/01/14 00:56:57;;;;;;;3.08;0.73;;;;;;;1.35;100.00;93357.59;2584098;22;20011;-81
2023/01/14 00:57:59;;;;;;;1.38;0.52;;;;;;;1.24;100.00;93356.66;2571433;23;20009;-83
2023/01/14 00:59:00;;;;;;;5.15;0.60;;;;;;;1.20;100.00;93366.38;2585367;22;20139;-81
2023/01/14 01:00:02;;;;;;;3.53;0.70;;;;;;;1.24;100.00;93372.47;2571170;23;20035;-81
2023/01/14 01:01:03;;;;;;;2.90;0.70;;;;;;;1.31;100.00;93369.19;2557826;23;20001;-82
2023/01/14 01:02:06;;;;;;;5.28;0.80;;;;;;;1.31;100.00;93377.06;2558014;23;20044;-87
2023/01/14 01:03:07;;;;;;;3.50;0.70;;;;;;;1.15;100.00;93370.06;2570294;22;20632;-82
2023/01/14 01:04:08;;;;;;;1.92;0.65;;;;;;;1.18;100.00;93371.22;2582111;22;20362;-83
2023/01/14 01:05:09;;;;;;;2.63;0.65;;;;;;;1.19;100.00;93367.50;2582244;22;20024;-82
2023/01/14 01:06:12;;;;;;;3.95;0.80;;;;;;;1.28;100.00;93367.25;2582635;22;20000;-82
2023/01/14 01:07:13;;;;;;;5.20;0.60;;;;;;;1.17;100.00;93359.16;2570099;23;20009;-81
2023/01/14 01:08:18;;;;;;;1.95;0.70;;;;;;;1.13;100.00;93367.00;2569977;23;20442;-78
2023/01/14 01:09:19;;;;;;;8.07;0.98;;;;;;;1.10;100.00;93364.28;2570405;23;20011;-79
2023/01/14 01:10:20;;;;;;;4.85;0.80;;;;;;;1.04;100.00;93360.44;2557783;23;20068;-82
2023/01/14 01:11:21;;;;;;;5.47;0.80;;;;;;;0.92;100.00;93358.72;2557507;23;20351;-81
2023/01/14 01:12:22;;;;;;;3.65;0.70;;;;;;;0.93;100.00;93363.66;2569837;23;20011;-79
2023/01/14 01:13:24;;;;;;;5.22;0.82;;;;;;;0.85;100.00;93356.72;2569790;23;20809;-83
2023/01/14 01:14:32;;;;;;;4.90;0.70;;;;;;;0.91;100.00;93357.19;2570482;22;20008;-85
2023/01/14 01:15:34;;;;;;;4.03;0.98;;;;;;;0.92;100.00;93356.06;2571872;23;20032;-81
2023/01/14 01:16:35;;;;;;;1.90;0.85;;;;;;;0.91;100.00;93362.47;2570041;22;20000;-79
2023/01/14 01:17:36;;;;;;;6.13;1.38;;;;;;;0.87;100.00;93346.59;2582516;22;20008;-83
2023/01/14 01:18:38;;;;;;;3.63;0.75;;;;;;;0.94;100.00;93352.00;2582140;22;20079;-85
2023/01/14 01:19:39;;;;;;;5.05;1.00;;;;;;;0.98;100.00;93350.19;2582479;22;20022;-82
2023/01/14 01:20:42;;;;;;;5.32;0.70;;;;;;;0.93;100.00;93349.72;2570424;23;19989;-85
2023/01/14 01:21:43;;;;;;;6.10;0.73;;;;;;;0.85;100.00;93354.09;2570236;22;20004;-82
2023/01/14 01:22:46;;;;;;;1.85;0.50;;;;;;;0.80;100.00;93356.25;2582155;23;20000;-84
2023/01/14 01:23:47;;;;;;;4.00;0.75;;;;;;;0.80;100.00;93358.88;2570013;23;20522;-82
2023/01/14 01:24:50;;;;;;;5.15;0.60;;;;;;;0.82;100.00;93357.41;2583894;22;20401;-80
2023/01/14 01:26:04;;;;;;;2.08;0.50;;;;;;;0.85;100.00;93367.25;2595269;22;20441;-80
2023/01/14 01:27:05;;;;;;;2.55;0.47;;;;;;;0.79;100.00;93363.38;2585272;22;20858;-82
2023/01/14 01:28:07;;;;;;;3.33;0.68;;;;;;;0.72;100.00;93357.97;2569970;23;20091;-84
2023/01/14 01:29:09;;;;;;;3.05;0.90;;;;;;;0.75;100.00;93367.81;2582055;22;20291;-81
2023/01/14 01:30:11;;;;;;;2.13;0.75;;;;;;;0.71;100.00;93372.25;2595054;22;20413;-80
2023/01/14 01:31:12;;;;;;;4.75;0.98;;;;;;;0.80;100.00;93370.16;2569849;23;20412;-82
2023/01/14 01:32:14;;;;;;;3.40;0.60;;;;;;;0.86;100.00;93368.00;2571023;22;20397;-81
2023/01/14 01:33:17;;;;;;;5.63;0.88;;;;;;;0.73;100.00;93375.28;2582482;22;20050;-80
2023/01/14 01:34:17;;;;;;;3.97;0.50;;;;;;;0.65;100.00;93370.97;2582570;22;20010;-81
2023/01/14 01:35:24;;;;;;;5.07;0.93;;;;;;;0.65;100.00;93370.97;2569978;23;20059;-80
2023/01/14 01:36:27;;;;;;;4.75;0.82;;;;;;;0.67;100.00;93371.41;2559894;23;20009;-82
2023/01/14 01:37:29;;;;;;;1.10;0.50;;;;;;;0.62;100.00;93380.34;2558351;23;20410;-82
2023/01/14 01:38:36;;;;;;;3.83;0.60;;;;;;;0.57;100.00;93379.84;2557193;23;20489;-82
2023/01/14 01:39:38;;;;;;;4.20;0.70;;;;;;;0.56;100.00;93380.94;2572511;22;20009;-82
2023/01/14 01:40:39;;;;;;;4.75;0.90;;;;;;;0.57;100.00;93378.00;2570919;23;20016;-81
2023/01/14 01:41:40;;;;;;;5.47;1.00;;;;;;;0.58;100.00;93379.50;2582065;22;20004;-84
2023/01/14 01:42:54;;;;;;;6.72;0.88;;;;;;;0.73;100.00;93385.81;2594656;22;20008;-80
2023/01/14 01:44:07;;;;;;;4.57;0.85;;;;;;;0.73;100.00;93383.16;2572636;23;20109;-81
2023/01/14 01:45:22;;;;;;;2.45;0.50;;;;;;;0.81;100.00;93389.34;2585670;22;20011;-83
2023/01/14 01:46:23;;;;;;;3.40;1.10;;;;;;;0.77;100.00;93383.25;2595190;22;20010;-81
2023/01/14 01:47:24;;;;;;;5.05;0.90;;;;;;;0.79;100.00;93386.28;2594709;22;20011;-82
2023/01/14 01:48:33;;;;;;;1.58;0.60;;;;;;;0.78;100.00;93382.88;2594635;22;20357;-83
2023/01/14 01:49:37;;;;;;;3.10;0.40;;;;;;;0.78;100.00;93375.00;2560579;23;20001;-82
2023/01/14 01:50:39;;;;;;;0.80;0.40;;;;;;;0.82;100.00;93377.69;2583606;22;20000;-86
2023/01/14 01:51:59;;;;;;;3.15;0.52;;;;;;;0.93;100.00;93379.44;2607821;22;20061;-85
2023/01/14 01:53:08;;;;;;;6.50;0.60;;;;;;;0.82;100.00;93373.19;2595501;22;19996;-81
2023/01/14 01:54:10;;;;;;;2.15;0.60;;;;;;;0.89;100.00;93378.59;2587764;23;20016;-85
2023/01/14 01:55:12;;;;;;;2.45;0.40;;;;;;;0.82;100.00;93381.09;2583685;22;20008;-81
2023/01/14 01:56:21;;;;;;;2.10;0.60;;;;;;;0.80;100.00;93380.69;2595235;22;19999;-85
2023/01/14 01:57:22;;;;;;;1.80;0.40;;;;;;;0.80;100.00;93375.44;2572492;23;20472;-84
2023/01/14 01:58:26;;;;;;;1.98;0.60;;;;;;;0.95;100.00;93374.56;2570267;22;20004;-83
2023/01/14 01:59:33;;;;;;;1.85;0.40;;;;;;;0.91;100.00;93370.34;2570585;23;20091;-82
2023/01/14 02:00:35;;;;;;;1.88;0.60;;;;;;;0.86;100.00;93362.75;2559585;23;20012;-83
2023/01/14 02:01:38;;;;;;;1.55;0.40;;;;;;;0.89;100.00;93365.44;2557497;23;20055;-84
2023/01/14 02:02:39;;;;;;;0.55;0.38;;;;;;;0.86;100.00;93366.13;2558446;23;20004;-82
2023/01/14 02:03:43;;;;;;;1.08;0.32;;;;;;;0.88;100.00;93363.94;2570562;22;20000;-82
2023/01/14 02:04:45;;;;;;;1.95;0.60;;;;;;;0.87;100.00;93367.66;2583914;22;20026;-81
2023/01/14 02:05:49;;;;;;;2.50;0.60;;;;;;;0.89;100.00;93365.44;2570601;23;20000;-81
2023/01/14 02:06:50;;;;;;;2.95;0.80;;;;;;;0.98;100.00;93359.97;2573344;22;20756;-85
2023/01/14 02:07:51;;;;;;;1.27;0.40;;;;;;;0.94;100.00;93357.25;2570035;23;20354;-85
2023/01/14 02:08:54;;;;;;;2.22;0.40;;;;;;;0.94;100.00;93357.25;2570945;23;19997;-80
2023/01/14 02:10:08;;;;;;;3.10;0.38;;;;;;;0.90;100.00;93353.03;2575315;22;20000;-83
2023/01/14 02:11:31;;;;;;;2.47;0.40;;;;;;;0.97;100.00;93359.22;2583521;23;20035;-80
2023/01/14 02:12:38;;;;;;;1.88;0.40;;;;;;;0.90;100.00;93361.69;2574448;23;20008;-80
2023/01/14 02:14:01;;;;;;;1.55;0.55;;;;;;;0.96;100.00;93357.66;2560569;23;20418;-83
2023/01/14 02:15:21;;;;;;;1.48;0.63;;;;;;;0.95;100.00;93348.25;2587579;22;20018;-87
2023/01/14 02:28:48;;;;;;;;;;;;;;;1.01;100.00;93354.00;2585440;22;20398;-84
2023/01/14 02:30:16;;;;;;;4.95;1.02;;;;;;;0.95;100.00;93352.75;2573224;23;19966;-82
2023/01/14 02:31:47;;;;;;;10.63;1.02;;;;;;;0.97;100.00;93350.56;2553868;23;20004;-83
2023/01/14 02:33:19;;;;;;;5.88;0.90;;;;;;;1.03;100.00;93354.41;2542370;23;20009;-84
2023/01/14 02:34:42;;;;;;;7.53;0.88;;;;;;;0.90;100.00;93364.34;2553744;23;20009;-80
2023/01/14 02:36:02;;;;;;;7.85;1.58;;;;;;;0.85;100.00;93367.25;2557895;23;20765;-83
2023/01/14 02:37:18;;;;;;;5.50;0.73;;;;;;;0.92;100.00;93364.75;2570915;23;20005;-83
2023/01/14 02:38:25;;;;;;;7.75;0.80;;;;;;;0.98;100.00;93367.88;2558363;23;20000;-82
2023/01/14 02:39:49;;;;;;;4.53;0.65;;;;;;;0.94;100.00;93372.28;2555429;23;20009;-87
2023/01/14 02:41:08;;;;;;;5.00;0.98;;;;;;;0.95;100.00;93369.31;2547049;23;20040;-82
2023/01/14 02:44:07;;;;;;;5.25;0.80;;;;;;;0.80;100.00;93369.41;2567902;23;20027;-82
2023/01/14 02:45:28;;;;;;;4.18;0.93;;;;;;;0.75;100.00;93367.81;2561508;23;20008;-81
2023/01/14 02:46:43;;;;;;;3.40;0.70;;;;;;;0.95;100.00;93365.91;2544848;23;20370;-81
2023/01/14 02:47:48;;;;;;;4.63;0.80;;;;;;;0.83;100.00;93366.06;2554851;23;20064;-84
2023/01/14 02:48:55;;;;;;;6.38;1.55;;;;;;;0.77;100.00;93356.94;2561564;23;20429;-83
2023/01/14 02:49:59;;;;;;;3.47;1.10;;;;;;;0.71;100.00;93353.84;2551544;23;20009;-82
2023/01/14 02:51:00;;;;;;;5.13;0.77;;;;;;;0.62;100.00;93353.28;2573540;23;20012;-80
2023/01/14 02:52:05;;;;;;;6.53;0.70;;;;;;;0.57;100.00;93350.91;2562326;23;20363;-82
2023/01/14 02:53:10;;;;;;;4.50;0.90;;;;;;;0.53;100.00;93350.88;2549673;23;20009;-83
2023/01/14 02:54:11;;;;;;;5.15;0.95;;;;;;;0.52;100.00;93348.56;2550579;23;20416;-84
2023/01/14 02:55:35;;;;;;;7.60;0.80;;;;;;;0.47;100.00;93350.34;2561605;23;20005;-80
2023/01/14 02:56:39;;;;;;;4.90;0.73;;;;;;;0.44;100.00;93358.97;2554084;23;20020;-82
2023/01/14 02:58:11;;;;;;;6.28;2.35;;;;;;;0.35;100.00;93353.13;2549619;23;20112;-83
2023/01/14 02:59:31;;;;;;;2.15;0.60;;;;;;;0.30;100.00;93358.66;2548257;23;20028;-82
2023/01/14 03:01:00;;;;;;;4.35;0.80;;;;;;;0.24;100.00;93352.16;2552170;23;20009;-82
2023/01/14 03:02:30;;;;;;;2.88;0.73;;;;;;;0.19;100.00;93355.81;2549359;23;20076;-84
2023/01/14 03:03:54;;;;;;;1.65;0.60;;;;;;;0.15;100.00;93357.59;2532951;23;20005;-82
2023/01/14 03:05:19;;;;;;;6.93;0.88;;;;;;;0.14;100.00;93353.44;2545418;23;20013;-84
2023/01/14 03:06:59;;;;;;;5.57;0.80;;;;;;;0.20;100.00;93349.44;2546489;23;20004;-81
2023/01/14 03:08:15;;;;;;;;;;;;;;;0.28;100.00;93344.34;2553106;23;20059;-83
2023/01/14 03:09:32;;;;;;;5.50;0.80;;;;;;;0.25;100.00;93343.91;2551441;23;19971;-83
2023/01/14 03:10:40;;;;;;;9.40;1.00;;;;;;;0.20;100.00;93338.16;2560202;23;20039;-81
2023/01/14 03:12:13;;;;;;;4.68;0.85;;;;;;;0.29;100.00;93340.59;2551753;23;20008;-85
2023/01/14 03:13:29;;;;;;;1.95;0.75;;;;;;;0.17;100.00;93334.34;2554211;23;20039;-84
2023/01/14 03:14:39;;;;;;;7.10;0.82;;;;;;;0.02;100.00;93331.78;2542435;23;20001;-84
2023/01/14 03:16:08;;;;;;;5.20;0.63;;;;;;;-0.02;100.00;93336.97;2540786;23;20009;-84
2023/01/14 03:17:26;;;;;;;4.97;1.50;;;;;;;0.02;100.00;93337.03;2560185;23;20044;-83
2023/01/14 03:18:38;;;;;;;5.18;1.17;;;;;;;0.08;100.00;93325.16;2552155;23;20010;-80
2023/01/14 03:20:06;;;;;;;7.03;0.77;;;;;;;0.20;100.00;93327.66;2551530;23;20009;-80
2023/01/14 03:21:17;;;;;;;6.25;0.88;;;;;;;0.18;100.00;93330.63;2549003;23;20088;-83
2023/01/14 03:22:18;;;;;;;9.05;0.93;;;;;;;0.26;100.00;93326.25;2553614;23;20416;-84
2023/01/14 03:23:22;;;;;;;6.75;0.98;;;;;;;0.15;100.00;93314.78;2548031;23;20092;-84
2023/01/14 03:24:31;;;;;;;3.35;0.80;;;;;;;0.13;100.00;93312.50;2548301;23;20002;-82
2023/01/14 03:25:39;;;;;;;2.17;0.65;;;;;;;0.16;100.00;93316.31;2550402;23;20013;-81
2023/01/14 03:26:44;;;;;;;2.53;0.60;;;;;;;0.16;100.00;93317.06;2539572;23;20028;-83
2023/01/14 03:27:49;;;;;;;4.47;0.75;;;;;;;0.24;100.00;93310.84;2549491;23;20352;-85
2023/01/14 03:28:55;;;;;;;6.05;1.23;;;;;;;0.24;100.00;93305.59;2547658;23;20021;-84
2023/01/14 03:30:03;;;;;;;2.33;0.55;;;;;;;0.20;100.00;93298.75;2547716;23;20092;-83
2023/01/14 03:31:14;;;;;;;6.93;1.17;;;;;;;0.16;100.00;93298.66;2547220;23;20619;-84
2023/01/14 03:32:20;;;;;;;2.97;1.00;;;;;;;0.21;100.00;93295.00;2548502;23;20088;-83
2023/01/14 03:33:27;;;;;;;5.68;0.88;;;;;;;0.36;100.00;93302.06;2536227;23;20411;-84
2023/01/14 03:34:33;;;;;;;4.60;0.90;;;;;;;0.33;100.00;93292.25;2536197;23;20077;-85
2023/01/14 03:35:38;;;;;;;5.80;0.80;;;;;;;0.27;100.00;93293.63;2535717;23;20361;-82
2023/01/14 03:36:44;;;;;;;7.90;1.10;;;;;;;0.44;100.00;93287.97;2546989;23;20151;-83
2023/01/14 03:37:51;;;;;;;5.63;0.98;;;;;;;0.38;100.00;93301.72;2548205;23;20013;-84
2023/01/14 03:38:58;;;;;;;4.22;1.00;;;;;;;0.20;100.00;93296.13;2535593;23;20427;-81
2023/01/14 03:40:08;;;;;;;4.88;0.88;;;;;;;0.15;100.00;93289.28;2536014;23;20061;-83
2023/01/14 03:42:17;;;;;;;4.07;0.85;;;;;;;0.15;100.00;93297.16;2549028;23;20323;-85
2023/01/14 03:42:40;;;;;;;4.70;0.85;;;;;;;0.21;100.00;93292.38;2562182;23;20007;-83
2023/01/14 03:43:48;;;;;;;3.28;1.20;;;;;;;0.20;100.00;93290.84;2558678;23;20005;-84
2023/01/14 03:44:49;;;;;;;4.82;0.68;;;;;;;0.37;100.00;93292.31;2570312;23;20012;-85
2023/01/14 03:45:50;;;;;;;5.22;1.10;;;;;;;0.31;100.00;93289.22;2545244;23;20016;-82
2023/01/14 03:46:52;;;;;;;1.85;0.60;;;;;;;0.27;100.00;93296.28;2545278;23;20009;-81
2023/01/14 03:47:54;;;;;;;5.43;0.60;;;;;;;0.17;100.00;93294.94;2545558;23;20006;-81
2023/01/14 03:48:58;;;;;;;6.95;0.95;;;;;;;0.17;100.00;93292.28;2533347;23;20006;-83
2023/01/14 03:50:02;;;;;;;4.55;0.70;;;;;;;0.24;100.00;93291.69;2546163;23;20006;-82
2023/01/14 03:51:39;;;;;;;5.93;0.90;;;;;;;0.31;100.00;93291.06;2533972;23;20010;-85
2023/01/14 03:52:46;;;;;;;3.67;0.80;;;;;;;0.29;100.00;93290.66;2547648;23;20014;-81
2023/01/14 03:54:10;;;;;;;3.72;0.70;;;;;;;0.19;100.00;93284.84;2535047;23;20061;-81
2023/01/14 03:55:43;;;;;;;3.80;0.90;;;;;;;0.33;100.00;93281.72;2489576;23;20007;-81
2023/01/14 03:57:05;;;;;;;6.95;1.00;;;;;;;0.35;100.00;93281.38;2520484;23;20014;-82
2023/01/14 03:58:17;;;;;;;4.22;0.82;;;;;;;0.32;100.00;93279.47;2513952;23;20162;-83
2023/01/14 03:59:28;;;;;;;10.93;1.23;;;;;;;0.24;100.00;93268.78;2560035;23;20027;-82
2023/01/14 04:00:37;;;;;;;12.55;1.73;;;;;;;0.24;100.00;93262.78;2547285;23;20075;-83
2023/01/14 04:01:47;;;;;;;4.55;0.98;;;;;;;0.28;100.00;93260.97;2547102;23;20005;-81
2023/01/14 04:02:50;;;;;;;14.30;3.25;;;;;;;0.34;100.00;93264.84;2536724;23;20108;-84
2023/01/14 04:03:53;;;;;;;4.93;1.70;;;;;;;0.65;100.00;93263.91;2534782;23;20029;-84
2023/01/14 04:04:55;;;;;;;6.40;1.15;;;;;;;0.48;100.00;93259.06;2534261;23;20006;-85
2023/01/14 04:05:56;;;;;;;6.35;1.20;;;;;;;0.58;100.00;93257.78;2545370;23;20063;-80
2023/01/14 04:06:57;;;;;;;8.70;1.33;;;;;;;0.51;100.00;93268.91;2533084;23;20006;-84
2023/01/14 04:08:03;;;;;;;4.88;1.08;;;;;;;0.46;100.00;93262.06;2533373;23;20035;-86
2023/01/14 04:09:05;;;;;;;10.85;1.50;;;;;;;0.53;100.00;93258.81;2535377;23;20416;-86
2023/01/14 04:10:10;;;;;;;14.32;1.75;;;;;;;0.42;100.00;93253.34;2533949;23;20017;-85
2023/01/14 04:11:11;;;;;;;8.45;1.15;;;;;;;0.55;100.00;93250.56;2535496;23;20014;-81
2023/01/14 04:12:13;;;;;;;16.25;1.80;;;;;;;0.67;100.00;93248.53;2545842;23;20029;-81
2023/01/14 04:15:55;;;;;;;17.50;1.92;;;;;;;0.65;100.00;93242.09;2563006;23;20005;-83
2023/01/14 04:16:56;;;;;;;16.38;2.08;;;;;;;0.70;100.00;93241.81;2546125;23;20016;-82
2023/01/14 04:17:59;;;;;;;22.15;2.50;;;;;;;0.80;100.00;93238.63;2545703;23;20008;-82
2023/01/14 04:19:00;;;;;;;23.23;1.80;;;;;;;0.77;100.00;93235.91;2545478;23;20029;-83
2023/01/14 04:20:01;;;;;;;18.67;1.85;;;;;;;0.93;100.00;93231.31;2533011;23;19997;-83
2023/01/14 04:21:02;;;;;;;18.63;2.40;;;;;;;0.97;100.00;93238.16;2533434;23;20065;-83
2023/01/14 04:22:03;;;;;;;15.23;2.75;;;;;;;0.99;100.00;93238.53;2533572;23;20002;-81
2023/01/14 04:23:04;;;;;;;16.08;1.90;;;;;;;0.97;100.00;93232.88;2545440;23;20457;-83
2023/01/14 04:24:05;;;;;;;21.08;2.05;;;;;;;0.91;100.00;93228.25;2557792;23;20009;-82
2023/01/14 04:25:08;;;;;;;24.33;2.63;;;;;;;0.88;100.00;93229.72;2557452;23;20092;-83
2023/01/14 04:26:09;;;;;;;18.00;2.30;;;;;;;0.96;100.00;93231.34;2545686;23;20001;-81
2023/01/14 04:27:10;;;;;;;17.27;2.30;;;;;;;1.13;100.00;93224.09;2533939;23;20013;-83
2023/01/14 04:28:11;;;;;;;15.90;1.63;;;;;;;1.07;100.00;93231.53;2533379;23;20053;-85
2023/01/14 04:29:13;;;;;;;14.02;1.90;;;;;;;0.97;100.00;93227.63;2533083;23;20057;-82
2023/01/14 04:30:14;;;;;;;24.30;2.60;;;;;;;0.94;100.00;93228.31;2533324;23;20393;-85
2023/01/14 04:31:15;;;;;;;17.45;2.30;;;;;;;0.93;100.00;93218.91;2533947;23;20006;-80
2023/01/14 04:32:16;;;;;;;19.38;2.25;;;;;;;0.88;100.00;93215.78;2536068;23;20325;-83
2023/01/14 04:33:17;;;;;;;19.67;1.92;;;;;;;1.00;100.00;93226.91;2533563;23;20052;-84
2023/01/14 04:34:18;;;;;;;15.50;2.20;;;;;;;0.94;100.00;93225.69;2546087;23;20013;-82
2023/01/14 04:35:19;;;;;;;25.98;3.03;;;;;;;0.89;100.00;93223.34;2545398;23;20057;-86
2023/01/14 04:36:20;;;;;;;16.15;3.28;;;;;;;0.85;100.00;93222.53;2545689;23;20005;-86
2023/01/14 04:37:21;;;;;;;18.70;3.10;;;;;;;0.79;100.00;93221.31;2546073;23;20022;-83
2023/01/14 04:38:23;;;;;;;18.58;2.60;;;;;;;0.75;100.00;93216.00;2545475;23;20025;-82
2023/01/14 04:39:24;;;;;;;13.65;2.10;;;;;;;0.82;100.00;93219.84;2545229;23;20819;-85
2023/01/14 04:40:24;;;;;;;16.85;2.13;;;;;;;0.92;100.00;93220.03;2545581;23;20001;-83
2023/01/14 04:42:45;;;;;;;9.07;1.40;;;;;;;0.98;100.00;93223.88;2554134;23;20001;-86
2023/01/14 04:43:46;;;;;;;10.07;2.05;;;;;;;0.86;100.00;93218.03;2557990;23;20032;-85
2023/01/14 04:44:48;;;;;;;9.63;1.58;;;;;;;0.83;100.00;93227.38;2557741;23;20435;-87
2023/01/14 04:45:53;;;;;;;16.17;2.40;;;;;;;0.80;100.00;93227.34;2557555;23;20079;-82
2023/01/14 04:46:54;;;;;;;18.38;2.50;;;;;;;0.75;100.00;93228.38;2546700;23;20444;-85
2023/01/14 04:47:55;;;;;;;12.98;1.40;;;;;;;0.76;100.00;93224.66;2557741;23;20096;-80
2023/01/14 04:48:56;;;;;;;21.02;1.75;;;;;;;0.78;100.00;93217.16;2571090;23;20032;-82
2023/01/14 04:50:30;;;;;;;11.18;1.73;;;;;;;0.81;100.00;93224.34;2546128;23;20051;-81
2023/01/14 04:51:22;;;;;;;15.18;1.63;;;;;;;0.74;100.00;93230.22;2556491;23;20001;-82
2023/01/14 04:52:25;;;;;;;9.95;2.05;;;;;;;0.78;100.00;93227.66;2545178;23;20095;-82
2023/01/14 04:53:28;;;;;;;9.43;1.50;;;;;;;0.74;100.00;93224.97;2534355;23;20417;-82
2023/01/14 04:54:29;;;;;;;13.98;1.88;;;;;;;0.77;100.00;93217.50;2532607;23;20006;-84
2023/01/14 04:55:30;;;;;;;12.82;1.98;;;;;;;0.73;100.00;93226.09;2533275;23;20006;-84
2023/01/14 04:56:31;;;;;;;9.02;1.90;;;;;;;0.73;100.00;93227.97;2545117;23;20005;-82
2023/01/14 04:57:32;;;;;;;26.65;2.40;;;;;;;0.73;100.00;93233.22;2544366;23;20377;-83
2023/01/14 04:58:33;;;;;;;10.32;1.80;;;;;;;0.74;100.00;93230.22;2542236;23;20006;-81
2023/01/14 04:59:35;;;;;;;10.48;1.83;;;;;;;0.76;100.00;93227.28;2537139;23;20025;-82
2023/01/14 05:00:37;;;;;;;8.57;1.75;;;;;;;0.73;100.00;93228.72;2535717;23;20028;-82
2023/01/14 05:01:38;;;;;;;11.30;1.90;;;;;;;0.84;100.00;93228.16;2535525;23;20002;-82
2023/01/14 05:02:39;;;;;;;12.93;2.00;;;;;;;0.86;100.00;93226.69;2534615;23;20002;-82
2023/01/14 05:03:40;;;;;;;15.20;2.22;;;;;;;0.75;100.00;93231.03;2558186;23;20000;-84
2023/01/14 05:04:41;;;;;;;10.25;1.58;;;;;;;0.76;100.00;93232.53;2557227;23;20012;-83
2023/01/14 05:05:42;;;;;;;9.93;1.65;;;;;;;0.73;100.00;93222.69;2544824;23;20005;-85
2023/01/14 05:06:43;;;;;;;11.02;2.08;;;;;;;0.68;100.00;93226.38;2545708;23;20084;-84
2023/01/14 05:07:44;;;;;;;15.35;1.92;;;;;;;0.67;100.00;93230.13;2545533;23;20005;-82
2023/01/14 05:08:47;;;;;;;15.70;1.88;;;;;;;0.68;100.00;93225.63;2557521;23;20012;-82
2023/01/14 05:09:48;;;;;;;12.90;1.67;;;;;;;0.83;100.00;93226.63;2546149;23;20450;-82
2023/01/14 05:10:49;;;;;;;12.90;1.73;;;;;;;0.78;100.00;93219.03;2533609;23;20006;-81
2023/01/14 05:11:50;;;;;;;15.60;2.03;;;;;;;0.74;100.00;93214.44;2546581;23;20002;-82
2023/01/14 05:12:57;;;;;;;13.05;2.05;;;;;;;0.72;100.00;93221.19;2557534;23;20005;-85
2023/01/14 05:13:58;;;;;;;15.10;1.95;;;;;;;0.72;100.00;93221.94;2557021;23;20431;-83
2023/01/14 05:14:59;;;;;;;13.18;1.98;;;;;;;0.74;100.00;93219.72;2558492;23;20026;-87
2023/01/14 05:16:00;;;;;;;18.05;2.20;;;;;;;0.77;100.00;93222.78;2556886;23;20001;-82
2023/01/14 05:17:01;;;;;;;12.32;1.75;;;;;;;0.78;100.00;93217.16;2545518;23;20424;-86
2023/01/14 05:18:03;;;;;;;17.42;1.95;;;;;;;0.77;100.00;93220.91;2545532;23;20005;-82
2023/01/14 05:19:04;;;;;;;18.58;1.70;;;;;;;0.77;100.00;93217.50;2533932;23;20459;-84
2023/01/14 05:20:06;;;;;;;18.05;2.33;;;;;;;0.74;100.00;93219.72;2545658;23;20016;-82
2023/01/14 05:21:07;;;;;;;18.92;1.88;;;;;;;0.77;100.00;93215.63;2545670;23;20060;-85
2023/01/14 05:22:08;;;;;;;13.93;2.40;;;;;;;0.78;100.00;93216.38;2533861;23;20052;-85
2023/01/14 05:23:12;;;;;;;18.15;3.05;;;;;;;0.97;100.00;93217.09;2535149;23;20444;-85
2023/01/14 05:24:14;;;;;;;21.38;2.88;;;;;;;0.93;100.00;93213.66;2553306;23;20025;-83
2023/01/14 05:25:15;;;;;;;11.55;2.50;;;;;;;0.94;100.00;93212.53;2535930;23;20055;-82
2023/01/14 05:26:17;;;;;;;16.38;2.38;;;;;;;0.98;100.00;93213.34;2532787;23;20020;-86
2023/01/14 05:27:18;;;;;;;16.58;2.20;;;;;;;0.99;100.00;93220.13;2545729;23;20009;-83